sensor_id;sensor_type;location;lat;lon;timestamp;P1;durP1;ratioP1;P2;durP2;ratioP2
57826;SDS011;43656;57.746;11.780;2022-10-15T00:01:15;14.07;;;5.90;;
57826;SDS011;43656;57.746;11.780;2022-10-15T00:03:41;16.10;;;6.38;;
57826;SDS011;43656;57.746;11.780;2022-10-15T00:06:09;19.08;;;6.38;;
57826;SDS011;43656;57.746;11.780;2022-10-15T00:08:36;18.00;;;6.40;;
57826;SDS011;43656;57.746;11.780;2022-10-15T00:11:06;18.02;;;6.43;;
57826;SDS011;43656;57.746;11.780;2022-10-15T00:13:34;14.02;;;6.15;;
57826;SDS011;43656;57.746;11.780;2022-10-15T00:16:00;24.17;;;7.85;;
57826;SDS011;43656;57.746;11.780;2022-10-15T00:18:26;18.88;;;6.70;;
57826;SDS011;43656;57.746;11.780;2022-10-15T00:20:51;18.02;;;7.65;;
57826;SDS011;43656;57.746;11.780;2022-10-15T00:23:17;16.00;;;7.18;;
57826;SDS011;43656;57.746;11.780;2022-10-15T00:25:42;21.00;;;7.85;;
57826;SDS011;43656;57.746;11.780;2022-10-15T00:28:07;19.50;;;7.75;;
57826;SDS011;43656;57.746;11.780;2022-10-15T00:30:33;20.38;;;7.90;;
57826;SDS011;43656;57.746;11.780;2022-10-15T00:32:58;17.25;;;8.80;;
57826;SDS011;43656;57.746;11.780;2022-10-15T00:35:24;16.33;;;7.55;;
57826;SDS011;43656;57.746;11.780;2022-10-15T00:37:50;19.10;;;8.13;;
57826;SDS011;43656;57.746;11.780;2022-10-15T00:40:16;19.50;;;8.80;;
57826;SDS011;43656;57.746;11.780;2022-10-15T00:42:41;22.48;;;8.95;;
57826;SDS011;43656;57.746;11.780;2022-10-15T00:45:10;16.17;;;8.60;;
57826;SDS011;43656;57.746;11.780;2022-10-15T00:47:41;27.17;;;10.00;;
57826;SDS011;43656;57.746;11.780;2022-10-15T00:50:14;24.75;;;10.32;;
57826;SDS011;43656;57.746;11.780;2022-10-15T00:55:28;23.60;;;11.30;;
57826;SDS011;43656;57.746;11.780;2022-10-15T00:58:00;24.40;;;11.23;;
57826;SDS011;43656;57.746;11.780;2022-10-15T01:00:30;22.60;;;12.47;;
57826;SDS011;43656;57.746;11.780;2022-10-15T01:02:56;29.08;;;13.00;;
57826;SDS011;43656;57.746;11.780;2022-10-15T01:05:21;21.95;;;12.65;;
57826;SDS011;43656;57.746;11.780;2022-10-15T01:07:48;22.58;;;12.95;;
57826;SDS011;43656;57.746;11.780;2022-10-15T01:10:13;25.35;;;13.52;;
57826;SDS011;43656;57.746;11.780;2022-10-15T01:15:18;26.02;;;13.45;;
57826;SDS011;43656;57.746;11.780;2022-10-15T01:34:43;31.75;;;18.55;;
57826;SDS011;43656;57.746;11.780;2022-10-15T01:39:55;39.92;;;20.27;;
57826;SDS011;43656;57.746;11.780;2022-10-15T01:42:27;38.97;;;19.83;;
57826;SDS011;43656;57.746;11.780;2022-10-15T01:44:57;37.13;;;19.88;;
57826;SDS011;43656;57.746;11.780;2022-10-15T01:47:33;38.85;;;21.13;;
57826;SDS011;43656;57.746;11.780;2022-10-15T01:50:02;42.03;;;22.10;;
57826;SDS011;43656;57.746;11.780;2022-10-15T01:52:31;43.95;;;21.90;;
57826;SDS011;43656;57.746;11.780;2022-10-15T01:55:01;40.70;;;21.60;;
57826;SDS011;43656;57.746;11.780;2022-10-15T01:57:29;42.15;;;22.05;;
57826;SDS011;43656;57.746;11.780;2022-10-15T01:59:57;41.50;;;22.80;;
57826;SDS011;43656;57.746;11.780;2022-10-15T02:02:23;44.97;;;24.38;;
57826;SDS011;43656;57.746;11.780;2022-10-15T02:04:48;46.97;;;23.83;;
57826;SDS011;43656;57.746;11.780;2022-10-15T02:10:09;47.72;;;24.33;;
57826;SDS011;43656;57.746;11.780;2022-10-15T02:15:26;48.03;;;24.70;;
57826;SDS011;43656;57.746;11.780;2022-10-15T02:18:03;44.80;;;24.58;;
57826;SDS011;43656;57.746;11.780;2022-10-15T02:20:50;48.13;;;25.40;;
57826;SDS011;43656;57.746;11.780;2022-10-15T02:23:20;49.03;;;25.92;;
57826;SDS011;43656;57.746;11.780;2022-10-15T02:25:48;47.97;;;25.02;;
57826;SDS011;43656;57.746;11.780;2022-10-15T02:28:16;50.65;;;25.48;;
57826;SDS011;43656;57.746;11.780;2022-10-15T02:30:42;50.28;;;25.38;;
57826;SDS011;43656;57.746;11.780;2022-10-15T02:33:12;48.03;;;24.95;;
57826;SDS011;43656;57.746;11.780;2022-10-15T02:35:40;51.42;;;26.60;;
57826;SDS011;43656;57.746;11.780;2022-10-15T02:38:09;54.45;;;29.05;;
57826;SDS011;43656;57.746;11.780;2022-10-15T02:40:38;51.65;;;27.50;;
57826;SDS011;43656;57.746;11.780;2022-10-15T02:43:07;56.03;;;28.90;;
57826;SDS011;43656;57.746;11.780;2022-10-15T02:45:34;56.38;;;29.65;;
57826;SDS011;43656;57.746;11.780;2022-10-15T02:48:01;60.08;;;31.20;;
57826;SDS011;43656;57.746;11.780;2022-10-15T02:50:26;57.00;;;30.67;;
57826;SDS011;43656;57.746;11.780;2022-10-15T02:52:51;55.78;;;31.60;;
57826;SDS011;43656;57.746;11.780;2022-10-15T02:55:17;60.50;;;32.28;;
57826;SDS011;43656;57.746;11.780;2022-10-15T02:57:42;61.65;;;32.45;;
57826;SDS011;43656;57.746;11.780;2022-10-15T03:00:08;58.20;;;32.72;;
57826;SDS011;43656;57.746;11.780;2022-10-15T03:02:34;52.83;;;31.55;;
57826;SDS011;43656;57.746;11.780;2022-10-15T03:04:59;57.97;;;31.38;;
57826;SDS011;43656;57.746;11.780;2022-10-15T03:07:24;55.13;;;31.55;;
57826;SDS011;43656;57.746;11.780;2022-10-15T03:09:50;52.42;;;30.67;;
57826;SDS011;43656;57.746;11.780;2022-10-15T03:12:15;60.92;;;32.53;;
57826;SDS011;43656;57.746;11.780;2022-10-15T03:14:40;61.80;;;32.03;;
57826;SDS011;43656;57.746;11.780;2022-10-15T03:17:06;52.78;;;30.98;;
57826;SDS011;43656;57.746;11.780;2022-10-15T03:19:32;54.47;;;30.33;;
57826;SDS011;43656;57.746;11.780;2022-10-15T03:21:57;56.88;;;31.88;;
57826;SDS011;43656;57.746;11.780;2022-10-15T03:24:22;57.33;;;31.27;;
57826;SDS011;43656;57.746;11.780;2022-10-15T03:26:48;52.53;;;30.27;;
57826;SDS011;43656;57.746;11.780;2022-10-15T03:29:13;56.90;;;29.70;;
57826;SDS011;43656;57.746;11.780;2022-10-15T03:31:39;55.80;;;30.40;;
57826;SDS011;43656;57.746;11.780;2022-10-15T03:34:04;61.95;;;30.50;;
57826;SDS011;43656;57.746;11.780;2022-10-15T03:36:29;58.00;;;30.63;;
57826;SDS011;43656;57.746;11.780;2022-10-15T03:38:55;55.08;;;30.27;;
57826;SDS011;43656;57.746;11.780;2022-10-15T03:41:20;58.95;;;30.40;;
57826;SDS011;43656;57.746;11.780;2022-10-15T03:43:45;55.17;;;29.63;;
57826;SDS011;43656;57.746;11.780;2022-10-15T03:46:11;59.42;;;30.05;;
57826;SDS011;43656;57.746;11.780;2022-10-15T03:48:36;58.25;;;30.25;;
57826;SDS011;43656;57.746;11.780;2022-10-15T03:51:02;64.60;;;31.55;;
57826;SDS011;43656;57.746;11.780;2022-10-15T03:53:27;63.08;;;31.25;;
57826;SDS011;43656;57.746;11.780;2022-10-15T03:55:53;63.17;;;31.55;;
57826;SDS011;43656;57.746;11.780;2022-10-15T03:58:18;62.83;;;30.77;;
57826;SDS011;43656;57.746;11.780;2022-10-15T04:00:43;60.17;;;29.35;;
57826;SDS011;43656;57.746;11.780;2022-10-15T04:03:09;67.07;;;30.67;;
57826;SDS011;43656;57.746;11.780;2022-10-15T04:05:35;62.03;;;29.15;;
57826;SDS011;43656;57.746;11.780;2022-10-15T04:08:01;60.17;;;28.48;;
57826;SDS011;43656;57.746;11.780;2022-10-15T04:10:27;66.35;;;29.75;;
57826;SDS011;43656;57.746;11.780;2022-10-15T04:12:53;61.17;;;29.13;;
57826;SDS011;43656;57.746;11.780;2022-10-15T04:15:19;56.30;;;29.25;;
57826;SDS011;43656;57.746;11.780;2022-10-15T04:17:44;60.03;;;27.83;;
57826;SDS011;43656;57.746;11.780;2022-10-15T04:20:10;54.08;;;26.08;;
57826;SDS011;43656;57.746;11.780;2022-10-15T04:22:36;57.20;;;27.70;;
57826;SDS011;43656;57.746;11.780;2022-10-15T04:25:02;62.10;;;28.00;;
57826;SDS011;43656;57.746;11.780;2022-10-15T04:27:27;54.88;;;25.30;;
57826;SDS011;43656;57.746;11.780;2022-10-15T04:29:54;51.60;;;24.65;;
57826;SDS011;43656;57.746;11.780;2022-10-15T04:32:20;48.60;;;24.20;;
57826;SDS011;43656;57.746;11.780;2022-10-15T04:34:46;52.42;;;25.42;;
57826;SDS011;43656;57.746;11.780;2022-10-15T04:37:11;53.30;;;26.10;;
57826;SDS011;43656;57.746;11.780;2022-10-15T04:39:37;53.15;;;25.13;;
57826;SDS011;43656;57.746;11.780;2022-10-15T04:42:02;54.30;;;24.65;;
57826;SDS011;43656;57.746;11.780;2022-10-15T04:44:28;51.28;;;24.63;;
57826;SDS011;43656;57.746;11.780;2022-10-15T04:46:53;46.20;;;22.65;;
57826;SDS011;43656;57.746;11.780;2022-10-15T04:49:19;47.50;;;23.42;;
57826;SDS011;43656;57.746;11.780;2022-10-15T04:51:44;46.33;;;22.35;;
57826;SDS011;43656;57.746;11.780;2022-10-15T04:54:10;42.83;;;23.30;;
57826;SDS011;43656;57.746;11.780;2022-10-15T04:56:36;43.28;;;22.00;;
57826;SDS011;43656;57.746;11.780;2022-10-15T04:59:04;45.95;;;22.88;;
57826;SDS011;43656;57.746;11.780;2022-10-15T05:01:31;47.75;;;21.85;;
57826;SDS011;43656;57.746;11.780;2022-10-15T05:03:56;42.22;;;23.08;;
57826;SDS011;43656;57.746;11.780;2022-10-15T05:06:22;48.45;;;22.77;;
57826;SDS011;43656;57.746;11.780;2022-10-15T05:08:48;46.85;;;23.55;;
57826;SDS011;43656;57.746;11.780;2022-10-15T05:11:14;50.78;;;24.48;;
57826;SDS011;43656;57.746;11.780;2022-10-15T05:13:42;44.33;;;24.30;;
57826;SDS011;43656;57.746;11.780;2022-10-15T05:16:12;52.22;;;25.67;;
57826;SDS011;43656;57.746;11.780;2022-10-15T05:18:40;58.70;;;26.95;;
57826;SDS011;43656;57.746;11.780;2022-10-15T05:21:06;53.67;;;26.98;;
57826;SDS011;43656;57.746;11.780;2022-10-15T05:23:32;57.58;;;28.67;;
57826;SDS011;43656;57.746;11.780;2022-10-15T05:25:58;62.00;;;30.40;;
57826;SDS011;43656;57.746;11.780;2022-10-15T05:28:26;64.85;;;31.23;;
57826;SDS011;43656;57.746;11.780;2022-10-15T05:30:53;70.70;;;32.72;;
57826;SDS011;43656;57.746;11.780;2022-10-15T05:33:18;78.60;;;32.53;;
57826;SDS011;43656;57.746;11.780;2022-10-15T05:35:44;81.63;;;33.92;;
57826;SDS011;43656;57.746;11.780;2022-10-15T05:38:10;87.05;;;35.58;;
57826;SDS011;43656;57.746;11.780;2022-10-15T05:40:35;82.32;;;34.15;;
57826;SDS011;43656;57.746;11.780;2022-10-15T05:43:01;78.00;;;34.03;;
57826;SDS011;43656;57.746;11.780;2022-10-15T05:45:26;81.00;;;35.17;;
57826;SDS011;43656;57.746;11.780;2022-10-15T05:47:55;82.20;;;35.35;;
57826;SDS011;43656;57.746;11.780;2022-10-15T05:50:23;87.38;;;35.30;;
57826;SDS011;43656;57.746;11.780;2022-10-15T05:52:48;83.60;;;35.25;;
57826;SDS011;43656;57.746;11.780;2022-10-15T05:55:14;81.18;;;35.13;;
57826;SDS011;43656;57.746;11.780;2022-10-15T05:57:39;79.50;;;34.85;;
57826;SDS011;43656;57.746;11.780;2022-10-15T06:00:05;83.57;;;34.78;;
57826;SDS011;43656;57.746;11.780;2022-10-15T06:02:31;87.53;;;35.38;;
57826;SDS011;43656;57.746;11.780;2022-10-15T06:04:56;83.15;;;35.83;;
57826;SDS011;43656;57.746;11.780;2022-10-15T06:07:22;85.60;;;35.95;;
57826;SDS011;43656;57.746;11.780;2022-10-15T06:09:47;82.53;;;33.72;;
57826;SDS011;43656;57.746;11.780;2022-10-15T06:12:13;77.82;;;32.90;;
57826;SDS011;43656;57.746;11.780;2022-10-15T06:14:38;82.82;;;35.20;;
57826;SDS011;43656;57.746;11.780;2022-10-15T06:17:04;82.72;;;34.03;;
57826;SDS011;43656;57.746;11.780;2022-10-15T06:19:30;80.38;;;33.88;;
57826;SDS011;43656;57.746;11.780;2022-10-15T06:21:55;71.88;;;32.85;;
57826;SDS011;43656;57.746;11.780;2022-10-15T06:24:21;75.07;;;31.58;;
57826;SDS011;43656;57.746;11.780;2022-10-15T06:26:47;61.28;;;28.45;;
57826;SDS011;43656;57.746;11.780;2022-10-15T06:29:12;54.10;;;25.98;;
57826;SDS011;43656;57.746;11.780;2022-10-15T06:31:38;43.00;;;21.98;;
57826;SDS011;43656;57.746;11.780;2022-10-15T06:34:03;34.53;;;19.20;;
57826;SDS011;43656;57.746;11.780;2022-10-15T06:36:28;33.10;;;17.02;;
57826;SDS011;43656;57.746;11.780;2022-10-15T06:38:54;30.33;;;17.15;;
57826;SDS011;43656;57.746;11.780;2022-10-15T06:41:19;31.30;;;16.05;;
57826;SDS011;43656;57.746;11.780;2022-10-15T06:43:47;32.20;;;15.00;;
57826;SDS011;43656;57.746;11.780;2022-10-15T06:46:13;31.70;;;15.98;;
57826;SDS011;43656;57.746;11.780;2022-10-15T06:48:41;30.90;;;15.65;;
57826;SDS011;43656;57.746;11.780;2022-10-15T06:51:08;31.30;;;15.18;;
57826;SDS011;43656;57.746;11.780;2022-10-15T06:53:34;26.55;;;13.68;;
57826;SDS011;43656;57.746;11.780;2022-10-15T06:56:00;24.38;;;12.52;;
57826;SDS011;43656;57.746;11.780;2022-10-15T06:58:27;24.55;;;11.50;;
57826;SDS011;43656;57.746;11.780;2022-10-15T07:00:58;21.50;;;11.20;;
57826;SDS011;43656;57.746;11.780;2022-10-15T07:03:24;19.75;;;11.48;;
57826;SDS011;43656;57.746;11.780;2022-10-15T07:05:49;18.67;;;10.55;;
57826;SDS011;43656;57.746;11.780;2022-10-15T07:08:15;20.95;;;10.68;;
57826;SDS011;43656;57.746;11.780;2022-10-15T07:10:40;20.25;;;10.73;;
57826;SDS011;43656;57.746;11.780;2022-10-15T07:13:05;20.60;;;10.60;;
57826;SDS011;43656;57.746;11.780;2022-10-15T07:15:31;17.33;;;9.80;;
57826;SDS011;43656;57.746;11.780;2022-10-15T07:17:57;17.85;;;9.65;;
57826;SDS011;43656;57.746;11.780;2022-10-15T07:20:26;19.05;;;9.38;;
57826;SDS011;43656;57.746;11.780;2022-10-15T07:22:57;17.83;;;8.25;;
57826;SDS011;43656;57.746;11.780;2022-10-15T07:25:24;14.57;;;7.90;;
57826;SDS011;43656;57.746;11.780;2022-10-15T07:27:49;12.45;;;6.97;;
57826;SDS011;43656;57.746;11.780;2022-10-15T07:30:15;14.35;;;7.10;;
57826;SDS011;43656;57.746;11.780;2022-10-15T07:32:41;11.48;;;6.75;;
57826;SDS011;43656;57.746;11.780;2022-10-15T07:35:07;13.88;;;6.60;;
57826;SDS011;43656;57.746;11.780;2022-10-15T07:37:33;12.45;;;6.68;;
57826;SDS011;43656;57.746;11.780;2022-10-15T07:39:58;15.65;;;6.43;;
57826;SDS011;43656;57.746;11.780;2022-10-15T07:42:24;10.70;;;6.43;;
57826;SDS011;43656;57.746;11.780;2022-10-15T07:44:50;9.95;;;5.80;;
57826;SDS011;43656;57.746;11.780;2022-10-15T07:47:15;13.82;;;6.20;;
57826;SDS011;43656;57.746;11.780;2022-10-15T07:49:40;13.63;;;6.38;;
57826;SDS011;43656;57.746;11.780;2022-10-15T07:52:06;11.32;;;6.82;;
57826;SDS011;43656;57.746;11.780;2022-10-15T07:54:34;10.63;;;6.10;;
57826;SDS011;43656;57.746;11.780;2022-10-15T07:57:00;14.23;;;7.07;;
57826;SDS011;43656;57.746;11.780;2022-10-15T07:59:25;15.85;;;6.10;;
57826;SDS011;43656;57.746;11.780;2022-10-15T08:01:53;14.95;;;7.20;;
57826;SDS011;43656;57.746;11.780;2022-10-15T08:04:18;11.98;;;7.07;;
57826;SDS011;43656;57.746;11.780;2022-10-15T08:06:44;13.07;;;7.05;;
57826;SDS011;43656;57.746;11.780;2022-10-15T08:09:10;12.98;;;7.18;;
57826;SDS011;43656;57.746;11.780;2022-10-15T08:11:36;10.88;;;7.35;;
57826;SDS011;43656;57.746;11.780;2022-10-15T08:14:01;11.90;;;7.60;;
57826;SDS011;43656;57.746;11.780;2022-10-15T08:16:28;16.10;;;8.10;;
57826;SDS011;43656;57.746;11.780;2022-10-15T08:18:56;14.40;;;8.45;;
57826;SDS011;43656;57.746;11.780;2022-10-15T08:21:22;17.00;;;9.55;;
57826;SDS011;43656;57.746;11.780;2022-10-15T08:23:47;16.35;;;8.15;;
57826;SDS011;43656;57.746;11.780;2022-10-15T08:26:13;11.55;;;7.28;;
57826;SDS011;43656;57.746;11.780;2022-10-15T08:28:38;11.85;;;6.75;;
57826;SDS011;43656;57.746;11.780;2022-10-15T08:31:04;10.88;;;6.38;;
57826;SDS011;43656;57.746;11.780;2022-10-15T08:33:30;9.38;;;5.80;;
57826;SDS011;43656;57.746;11.780;2022-10-15T08:35:56;8.52;;;5.05;;
57826;SDS011;43656;57.746;11.780;2022-10-15T08:38:21;9.00;;;4.80;;
57826;SDS011;43656;57.746;11.780;2022-10-15T08:41:10;7.38;;;3.50;;
57826;SDS011;43656;57.746;11.780;2022-10-15T08:43:43;7.85;;;3.58;;
57826;SDS011;43656;57.746;11.780;2022-10-15T08:46:13;10.30;;;3.10;;
57826;SDS011;43656;57.746;11.780;2022-10-15T08:48:48;7.15;;;2.85;;
57826;SDS011;43656;57.746;11.780;2022-10-15T08:51:18;5.80;;;2.30;;
57826;SDS011;43656;57.746;11.780;2022-10-15T08:53:49;3.78;;;1.80;;
57826;SDS011;43656;57.746;11.780;2022-10-15T08:56:26;3.85;;;1.58;;
57826;SDS011;43656;57.746;11.780;2022-10-15T09:04:17;6.13;;;1.30;;
57826;SDS011;43656;57.746;11.780;2022-10-15T09:06:56;4.10;;;1.58;;
57826;SDS011;43656;57.746;11.780;2022-10-15T09:15:22;3.80;;;2.00;;
57826;SDS011;43656;57.746;11.780;2022-10-15T09:17:50;5.60;;;2.50;;
57826;SDS011;43656;57.746;11.780;2022-10-15T09:20:24;4.50;;;2.40;;
57826;SDS011;43656;57.746;11.780;2022-10-15T09:22:54;3.70;;;2.10;;
57826;SDS011;43656;57.746;11.780;2022-10-15T09:25:20;4.85;;;2.10;;
57826;SDS011;43656;57.746;11.780;2022-10-15T09:27:47;4.05;;;2.17;;
57826;SDS011;43656;57.746;11.780;2022-10-15T09:30:33;7.85;;;2.90;;
57826;SDS011;43656;57.746;11.780;2022-10-15T09:44:07;4.85;;;1.38;;
57826;SDS011;43656;57.746;11.780;2022-10-15T09:46:44;4.93;;;1.33;;
57826;SDS011;43656;57.746;11.780;2022-10-15T09:49:24;6.93;;;1.23;;
57826;SDS011;43656;57.746;11.780;2022-10-15T09:57:00;13.05;;;4.75;;
57826;SDS011;43656;57.746;11.780;2022-10-15T09:59:25;10.93;;;2.90;;
57826;SDS011;43656;57.746;11.780;2022-10-15T10:04:25;5.97;;;2.25;;
57826;SDS011;43656;57.746;11.780;2022-10-15T10:07:03;5.47;;;1.50;;
57826;SDS011;43656;57.746;11.780;2022-10-15T10:09:35;8.45;;;1.50;;
57826;SDS011;43656;57.746;11.780;2022-10-15T10:12:04;7.18;;;1.73;;
57826;SDS011;43656;57.746;11.780;2022-10-15T10:14:32;8.80;;;1.60;;
57826;SDS011;43656;57.746;11.780;2022-10-15T10:17:24;7.80;;;1.20;;
57826;SDS011;43656;57.746;11.780;2022-10-15T10:22:27;7.00;;;1.73;;
57826;SDS011;43656;57.746;11.780;2022-10-15T10:24:52;6.90;;;1.70;;
57826;SDS011;43656;57.746;11.780;2022-10-15T10:27:19;6.65;;;1.88;;
57826;SDS011;43656;57.746;11.780;2022-10-15T10:29:59;9.63;;;1.70;;
57826;SDS011;43656;57.746;11.780;2022-10-15T10:32:28;20.70;;;10.88;;
57826;SDS011;43656;57.746;11.780;2022-10-15T10:35:18;10.50;;;4.03;;
57826;SDS011;43656;57.746;11.780;2022-10-15T10:37:46;8.85;;;2.50;;
57826;SDS011;43656;57.746;11.780;2022-10-15T10:40:23;8.43;;;1.80;;
57826;SDS011;43656;57.746;11.780;2022-10-15T10:43:08;8.15;;;1.70;;
57826;SDS011;43656;57.746;11.780;2022-10-15T10:45:51;7.25;;;1.90;;
57826;SDS011;43656;57.746;11.780;2022-10-15T10:48:28;5.65;;;2.00;;
57826;SDS011;43656;57.746;11.780;2022-10-15T10:51:17;10.18;;;2.75;;
57826;SDS011;43656;57.746;11.780;2022-10-15T10:53:58;10.43;;;2.22;;
57826;SDS011;43656;57.746;11.780;2022-10-15T10:56:31;7.68;;;1.83;;
57826;SDS011;43656;57.746;11.780;2022-10-15T11:01:37;9.57;;;2.20;;
57826;SDS011;43656;57.746;11.780;2022-10-15T11:04:03;6.03;;;2.10;;
57826;SDS011;43656;57.746;11.780;2022-10-15T11:06:43;8.18;;;2.13;;
57826;SDS011;43656;57.746;11.780;2022-10-15T11:12:06;6.97;;;2.60;;
57826;SDS011;43656;57.746;11.780;2022-10-15T11:43:00;7.47;;;2.15;;
57826;SDS011;43656;57.746;11.780;2022-10-15T11:51:17;9.95;;;1.98;;
57826;SDS011;43656;57.746;11.780;2022-10-15T11:56:29;7.68;;;2.20;;
57826;SDS011;43656;57.746;11.780;2022-10-15T11:59:03;7.90;;;2.03;;
57826;SDS011;43656;57.746;11.780;2022-10-15T12:01:51;7.82;;;1.83;;
57826;SDS011;43656;57.746;11.780;2022-10-15T12:07:17;6.85;;;1.67;;
57826;SDS011;43656;57.746;11.780;2022-10-15T12:09:48;6.63;;;2.38;;
57826;SDS011;43656;57.746;11.780;2022-10-15T12:12:20;8.13;;;1.70;;
57826;SDS011;43656;57.746;11.780;2022-10-15T12:20:29;7.25;;;1.67;;
57826;SDS011;43656;57.746;11.780;2022-10-15T12:22:56;5.90;;;1.50;;
57826;SDS011;43656;57.746;11.780;2022-10-15T12:25:48;13.13;;;1.98;;
57826;SDS011;43656;57.746;11.780;2022-10-15T12:28:21;7.53;;;2.00;;
57826;SDS011;43656;57.746;11.780;2022-10-15T12:30:52;9.88;;;1.90;;
57826;SDS011;43656;57.746;11.780;2022-10-15T12:33:44;10.40;;;1.85;;
57826;SDS011;43656;57.746;11.780;2022-10-15T12:38:55;8.35;;;1.98;;
57826;SDS011;43656;57.746;11.780;2022-10-15T12:41:20;5.45;;;1.30;;
57826;SDS011;43656;57.746;11.780;2022-10-15T12:44:19;12.30;;;1.55;;
57826;SDS011;43656;57.746;11.780;2022-10-15T12:46:47;9.10;;;1.40;;
57826;SDS011;43656;57.746;11.780;2022-10-15T12:51:54;8.63;;;1.48;;
57826;SDS011;43656;57.746;11.780;2022-10-15T12:54:43;11.10;;;1.75;;
57826;SDS011;43656;57.746;11.780;2022-10-15T13:00:00;9.02;;;1.65;;
57826;SDS011;43656;57.746;11.780;2022-10-15T13:02:45;9.13;;;1.75;;
57826;SDS011;43656;57.746;11.780;2022-10-15T13:07:51;7.32;;;1.10;;
57826;SDS011;43656;57.746;11.780;2022-10-15T13:10:23;8.45;;;1.63;;
57826;SDS011;43656;57.746;11.780;2022-10-15T13:12:53;7.18;;;1.25;;
57826;SDS011;43656;57.746;11.780;2022-10-15T13:15:25;6.30;;;1.20;;
57826;SDS011;43656;57.746;11.780;2022-10-15T13:17:53;8.80;;;1.35;;
57826;SDS011;43656;57.746;11.780;2022-10-15T13:23:08;8.07;;;1.90;;
57826;SDS011;43656;57.746;11.780;2022-10-15T13:25:45;11.63;;;1.80;;
57826;SDS011;43656;57.746;11.780;2022-10-15T13:28:34;6.40;;;1.75;;
57826;SDS011;43656;57.746;11.780;2022-10-15T13:31:02;5.47;;;1.88;;
57826;SDS011;43656;57.746;11.780;2022-10-15T13:33:33;5.45;;;1.75;;
57826;SDS011;43656;57.746;11.780;2022-10-15T13:36:07;6.90;;;1.65;;
57826;SDS011;43656;57.746;11.780;2022-10-15T13:38:34;9.00;;;1.92;;
57826;SDS011;43656;57.746;11.780;2022-10-15T13:41:02;7.18;;;1.73;;
57826;SDS011;43656;57.746;11.780;2022-10-15T13:43:28;11.40;;;2.55;;
57826;SDS011;43656;57.746;11.780;2022-10-15T13:45:55;8.77;;;2.42;;
57826;SDS011;43656;57.746;11.780;2022-10-15T13:48:24;8.05;;;1.80;;
57826;SDS011;43656;57.746;11.780;2022-10-15T13:51:01;8.23;;;1.70;;
57826;SDS011;43656;57.746;11.780;2022-10-15T13:56:00;4.88;;;2.10;;
57826;SDS011;43656;57.746;11.780;2022-10-15T13:58:34;6.95;;;2.08;;
57826;SDS011;43656;57.746;11.780;2022-10-15T14:01:07;5.65;;;1.83;;
57826;SDS011;43656;57.746;11.780;2022-10-15T14:03:49;5.65;;;2.42;;
57826;SDS011;43656;57.746;11.780;2022-10-15T14:08:50;8.93;;;4.50;;
57826;SDS011;43656;57.746;11.780;2022-10-15T14:11:17;10.38;;;4.32;;
57826;SDS011;43656;57.746;11.780;2022-10-15T14:13:53;8.95;;;4.25;;
57826;SDS011;43656;57.746;11.780;2022-10-15T14:18:48;8.60;;;5.13;;
57826;SDS011;43656;57.746;11.780;2022-10-15T14:21:21;8.10;;;4.90;;
57826;SDS011;43656;57.746;11.780;2022-10-15T14:24:05;8.23;;;4.55;;
57826;SDS011;43656;57.746;11.780;2022-10-15T14:26:36;8.68;;;4.63;;
57826;SDS011;43656;57.746;11.780;2022-10-15T14:29:03;8.85;;;4.60;;
57826;SDS011;43656;57.746;11.780;2022-10-15T14:31:32;18.27;;;5.85;;
57826;SDS011;43656;57.746;11.780;2022-10-15T14:34:02;8.50;;;4.45;;
57826;SDS011;43656;57.746;11.780;2022-10-15T14:36:29;11.85;;;4.93;;
57826;SDS011;43656;57.746;11.780;2022-10-15T14:39:15;11.70;;;4.72;;
57826;SDS011;43656;57.746;11.780;2022-10-15T14:42:24;8.80;;;4.80;;
57826;SDS011;43656;57.746;11.780;2022-10-15T14:44:51;10.00;;;5.05;;
57826;SDS011;43656;57.746;11.780;2022-10-15T14:47:23;8.38;;;5.15;;
57826;SDS011;43656;57.746;11.780;2022-10-15T14:49:53;9.48;;;5.32;;
57826;SDS011;43656;57.746;11.780;2022-10-15T14:52:20;11.10;;;5.32;;
57826;SDS011;43656;57.746;11.780;2022-10-15T14:54:56;9.65;;;5.18;;
57826;SDS011;43656;57.746;11.780;2022-10-15T14:57:24;9.13;;;5.00;;
57826;SDS011;43656;57.746;11.780;2022-10-15T14:59:53;11.30;;;5.78;;
57826;SDS011;43656;57.746;11.780;2022-10-15T15:02:20;9.82;;;5.47;;
57826;SDS011;43656;57.746;11.780;2022-10-15T15:05:30;9.55;;;5.40;;
57826;SDS011;43656;57.746;11.780;2022-10-15T15:07:37;9.65;;;5.65;;
57826;SDS011;43656;57.746;11.780;2022-10-15T15:10:04;12.45;;;5.75;;
57826;SDS011;43656;57.746;11.780;2022-10-15T15:12:32;14.35;;;7.03;;
57826;SDS011;43656;57.746;11.780;2022-10-15T15:14:58;11.07;;;6.40;;
57826;SDS011;43656;57.746;11.780;2022-10-15T15:17:25;13.15;;;6.90;;
57826;SDS011;43656;57.746;11.780;2022-10-15T15:19:53;13.45;;;7.20;;
57826;SDS011;43656;57.746;11.780;2022-10-15T15:22:30;10.98;;;7.03;;
57826;SDS011;43656;57.746;11.780;2022-10-15T15:24:58;10.13;;;6.80;;
57826;SDS011;43656;57.746;11.780;2022-10-15T15:27:29;14.80;;;6.97;;
57826;SDS011;43656;57.746;11.780;2022-10-15T15:30:02;10.82;;;7.05;;
57826;SDS011;43656;57.746;11.780;2022-10-15T15:32:30;11.95;;;7.90;;
57826;SDS011;43656;57.746;11.780;2022-10-15T15:34:56;11.02;;;7.40;;
57826;SDS011;43656;57.746;11.780;2022-10-15T15:37:23;13.32;;;7.50;;
57826;SDS011;43656;57.746;11.780;2022-10-15T15:39:54;14.50;;;7.95;;
57826;SDS011;43656;57.746;11.780;2022-10-15T15:42:21;11.85;;;7.78;;
57826;SDS011;43656;57.746;11.780;2022-10-15T15:44:48;11.35;;;8.38;;
57826;SDS011;43656;57.746;11.780;2022-10-15T15:47:13;11.90;;;8.13;;
57826;SDS011;43656;57.746;11.780;2022-10-15T15:49:39;14.63;;;9.30;;
57826;SDS011;43656;57.746;11.780;2022-10-15T15:52:06;17.08;;;9.77;;
57826;SDS011;43656;57.746;11.780;2022-10-15T15:54:37;15.55;;;9.35;;
57826;SDS011;43656;57.746;11.780;2022-10-15T15:57:02;14.77;;;9.13;;
57826;SDS011;43656;57.746;11.780;2022-10-15T15:59:28;15.60;;;9.23;;
57826;SDS011;43656;57.746;11.780;2022-10-15T16:01:53;15.23;;;8.93;;
57826;SDS011;43656;57.746;11.780;2022-10-15T16:04:19;14.68;;;8.88;;
57826;SDS011;43656;57.746;11.780;2022-10-15T16:06:45;12.30;;;8.05;;
57826;SDS011;43656;57.746;11.780;2022-10-15T16:09:13;10.95;;;7.68;;
57826;SDS011;43656;57.746;11.780;2022-10-15T16:11:42;14.20;;;7.63;;
57826;SDS011;43656;57.746;11.780;2022-10-15T16:14:08;10.93;;;8.10;;
57826;SDS011;43656;57.746;11.780;2022-10-15T16:16:34;11.65;;;7.10;;
57826;SDS011;43656;57.746;11.780;2022-10-15T16:19:00;11.88;;;7.55;;
57826;SDS011;43656;57.746;11.780;2022-10-15T16:21:26;11.75;;;7.45;;
57826;SDS011;43656;57.746;11.780;2022-10-15T16:23:52;12.27;;;8.60;;
57826;SDS011;43656;57.746;11.780;2022-10-15T16:26:18;13.20;;;8.18;;
57826;SDS011;43656;57.746;11.780;2022-10-15T16:28:44;11.25;;;8.30;;
57826;SDS011;43656;57.746;11.780;2022-10-15T16:31:16;11.93;;;8.40;;
57826;SDS011;43656;57.746;11.780;2022-10-15T16:33:46;14.32;;;7.80;;
57826;SDS011;43656;57.746;11.780;2022-10-15T16:36:12;13.15;;;8.32;;
57826;SDS011;43656;57.746;11.780;2022-10-15T16:38:38;9.50;;;8.38;;
57826;SDS011;43656;57.746;11.780;2022-10-15T16:41:05;12.45;;;9.00;;
57826;SDS011;43656;57.746;11.780;2022-10-15T16:43:32;14.32;;;9.88;;